Time;durP1;ratioP1;P1;durP2;ratioP2;P2;SDS_P1;SDS_P2;PMS_P1;PMS_P2;Temp;Humidity;BMP_temperature;BMP_pressure;BME280_temperature;BME280_humidity;BME280_pressure;Samples;Min_cycle;Max_cycle;Signal;HPM_P1;HPM_P2
2023/02/23 00:00:31;;;;;;;19.50;17.60;;;12.60;29.20;;;;;;4967494;28;20785;-53
2023/02/23 00:03:00;;;;;;;18.53;16.50;;;12.60;29.20;;;;;;4958224;28;20430;-50
2023/02/23 00:05:27;;;;;;;17.80;16.03;;;12.70;29.20;;;;;;4966419;28;20417;-52
2023/02/23 00:07:53;;;;;;;16.37;15.00;;;12.70;29.10;;;;;;4962241;28;20421;-52
2023/02/23 00:10:20;;;;;;;18.03;16.30;;;12.70;29.00;;;;;;4960051;28;20427;-49
2023/02/23 00:12:48;;;;;;;15.90;14.50;;;12.70;29.30;;;;;;4962549;28;20642;-53
2023/02/23 00:15:14;;;;;;;17.47;16.00;;;12.70;29.10;;;;;;4964469;28;20925;-53
2023/02/23 00:17:40;;;;;;;18.43;16.70;;;12.70;29.10;;;;;;4961403;28;20514;-49
2023/02/23 00:20:12;;;;;;;16.63;15.00;;;12.70;29.30;;;;;;4964667;28;20790;-53
2023/02/23 00:22:39;;;;;;;17.67;15.90;;;12.70;29.20;;;;;;4981214;28;20755;-53
2023/02/23 00:25:07;;;;;;;17.40;15.80;;;12.80;29.20;;;;;;4964326;28;20471;-51
2023/02/23 00:27:32;;;;;;;16.50;15.10;;;12.80;29.10;;;;;;4978034;28;20984;-50
2023/02/23 00:29:58;;;;;;;16.53;14.93;;;12.70;29.30;;;;;;4966869;28;20509;-52
2023/02/23 00:32:23;;;;;;;17.87;16.23;;;12.70;29.50;;;;;;4960150;28;20564;-50
2023/02/23 00:34:49;;;;;;;15.77;14.43;;;12.70;29.70;;;;;;4966772;28;20264;-53
2023/02/23 00:37:16;;;;;;;17.27;15.63;;;12.70;30.00;;;;;;4960636;28;20179;-51
2023/02/23 00:39:42;;;;;;;16.83;15.30;;;12.70;30.60;;;;;;4965868;28;20264;-49
2023/02/23 00:42:07;;;;;;;15.40;14.20;;;12.70;31.50;;;;;;4965929;28;20453;-51
2023/02/23 00:44:33;;;;;;;16.00;14.33;;;12.80;32.30;;;;;;4961906;28;20221;-51
2023/02/23 00:47:02;;;;;;;16.60;14.80;;;12.80;32.70;;;;;;4962214;28;20178;-50
2023/02/23 00:49:28;;;;;;;15.37;14.10;;;12.70;33.50;;;;;;4963956;28;21040;-50
2023/02/23 00:51:53;;;;;;;16.33;14.87;;;12.70;33.10;;;;;;4973551;28;20534;-53
2023/02/23 00:54:21;;;;;;;18.70;14.80;;;12.70;33.50;;;;;;4966753;28;20202;-49
2023/02/23 00:56:46;;;;;;;17.30;15.60;;;12.70;33.90;;;;;;4965994;28;20273;-51
2023/02/23 00:59:13;;;;;;;17.00;15.70;;;12.60;33.80;;;;;;4966790;28;20457;-54
2023/02/23 01:01:42;;;;;;;15.60;14.13;;;12.60;33.80;;;;;;4968203;28;20418;-52
2023/02/23 01:04:10;;;;;;;16.87;15.37;;;12.50;33.70;;;;;;4969481;28;20418;-49
2023/02/23 01:06:36;;;;;;;16.73;15.23;;;12.50;33.70;;;;;;4964647;28;20418;-50
2023/02/23 01:09:10;;;;;;;17.20;15.70;;;12.40;33.70;;;;;;4969976;28;20418;-53
2023/02/23 01:11:36;;;;;;;17.43;15.80;;;12.40;33.70;;;;;;4965106;28;20477;-50
2023/02/23 01:14:02;;;;;;;17.33;15.83;;;12.40;34.00;;;;;;4985121;28;20981;-51
2023/02/23 01:16:31;;;;;;;15.43;14.23;;;12.40;33.90;;;;;;4970930;28;20178;-50
2023/02/23 01:19:00;;;;;;;16.00;14.90;;;12.40;34.00;;;;;;4963511;28;20839;-49
2023/02/23 01:21:34;;;;;;;16.33;15.10;;;12.40;33.90;;;;;;4969035;28;20483;-53
2023/02/23 01:24:01;;;;;;;17.10;15.50;;;12.30;34.70;;;;;;4963303;28;20936;-54
2023/02/23 01:26:35;;;;;;;17.67;16.00;;;12.30;35.20;;;;;;4962964;28;20437;-52
2023/02/23 01:29:07;;;;;;;16.60;15.07;;;12.30;35.40;;;;;;4966402;28;20420;-54
2023/02/23 01:31:34;;;;;;;17.17;15.73;;;12.30;35.70;;;;;;4965066;28;20459;-52
2023/02/23 01:34:01;;;;;;;16.97;15.43;;;12.30;35.40;;;;;;4966157;28;20461;-50
2023/02/23 01:36:28;;;;;;;17.30;15.90;;;12.30;35.40;;;;;;4966089;28;20405;-53
2023/02/23 01:38:55;;;;;;;17.87;16.37;;;12.30;35.80;;;;;;4964054;28;20418;-51
2023/02/23 01:41:23;;;;;;;18.23;16.73;;;12.30;35.70;;;;;;4966106;28;20522;-52
2023/02/23 01:44:06;;;;;;;17.27;15.97;;;12.30;36.00;;;;;;4981937;28;20531;-52
2023/02/23 01:46:37;;;;;;;17.17;15.87;;;12.30;36.50;;;;;;4964105;28;20781;-49
2023/02/23 01:49:06;;;;;;;18.23;16.77;;;12.40;37.00;;;;;;4966153;28;20428;-51
2023/02/23 01:51:41;;;;;;;18.80;17.00;;;12.40;36.90;;;;;;4963215;28;20461;-53
2023/02/23 01:54:14;;;;;;;21.00;19.40;;;12.30;38.20;;;;;;4966609;28;20994;-55
2023/02/23 01:56:44;;;;;;;22.50;20.50;;;12.30;37.30;;;;;;4964724;28;20414;-51
2023/02/23 01:59:12;;;;;;;21.30;19.57;;;12.30;37.60;;;;;;4977200;28;20413;-55
2023/02/23 02:01:41;;;;;;;19.07;17.17;;;12.30;37.80;;;;;;4964080;28;20429;-53
2023/02/23 02:04:15;;;;;;;21.30;19.70;;;12.30;37.80;;;;;;4967522;28;20426;-54
2023/02/23 02:06:43;;;;;;;18.47;16.97;;;12.30;38.30;;;;;;4964293;28;20433;-49
2023/02/23 02:09:16;;;;;;;19.60;17.93;;;12.30;38.80;;;;;;4966060;28;20449;-50
2023/02/23 02:11:45;;;;;;;26.17;17.37;;;12.30;38.90;;;;;;4964711;28;20773;-49
2023/02/23 02:14:28;;;;;;;19.93;18.13;;;12.20;38.60;;;;;;4964538;28;20520;-49
2023/02/23 02:17:26;;;;;;;23.43;21.57;;;12.20;38.90;;;;;;4955510;28;20843;-49
2023/02/23 02:20:11;;;;;;;22.43;20.63;;;12.20;39.20;;;;;;4950528;28;20429;-50
2023/02/23 02:23:13;;;;;;;19.27;17.67;;;12.20;39.30;;;;;;4963703;28;20506;-53
2023/02/23 02:25:51;;;;;;;18.33;16.87;;;12.20;39.50;;;;;;4962827;28;20796;-50
2023/02/23 02:29:07;;;;;;;23.07;21.30;;;12.20;39.80;;;;;;4964745;28;20960;-52
2023/02/23 02:32:10;;;;;;;19.10;17.53;;;12.20;40.00;;;;;;4932941;28;20425;-49
2023/02/23 02:34:42;;;;;;;25.47;23.67;;;12.20;40.40;;;;;;4966178;28;20469;-51
2023/02/23 02:37:36;;;;;;;24.60;22.70;;;12.20;40.40;;;;;;4961497;28;20501;-50
2023/02/23 02:40:16;;;;;;;23.37;21.50;;;12.10;40.50;;;;;;4961560;28;20473;-55
2023/02/23 02:42:51;;;;;;;24.03;22.23;;;12.20;40.80;;;;;;4969929;28;20835;-54
2023/02/23 02:45:41;;;;;;;23.67;21.70;;;12.20;40.70;;;;;;4961866;28;20437;-55
2023/02/23 02:48:09;;;;;;;19.20;17.53;;;12.20;40.40;;;;;;4957449;28;20422;-54
2023/02/23 02:50:55;;;;;;;24.00;22.20;;;12.20;40.30;;;;;;4962047;28;20949;-55
2023/02/23 02:53:39;;;;;;;23.87;21.97;;;12.20;40.30;;;;;;4961479;28;20540;-56
2023/02/23 02:56:06;;;;;;;24.83;22.83;;;12.20;40.70;;;;;;4957206;28;20410;-56
2023/02/23 02:58:32;;;;;;;25.70;23.50;;;12.20;40.30;;;;;;4953777;28;20419;-55
2023/02/23 04:19:11;;;;;;;18.43;17.03;;;12.10;42.30;;;;;;4976083;28;21006;-56
2023/02/23 04:21:37;;;;;;;23.40;21.50;;;12.20;42.20;;;;;;4964727;28;20512;-56
2023/02/23 04:24:03;;;;;;;19.50;17.77;;;12.10;42.20;;;;;;4957622;28;20190;-56
2023/02/23 04:26:28;;;;;;;23.73;21.87;;;12.20;42.40;;;;;;4966793;28;20178;-56
2023/02/23 04:28:54;;;;;;;21.83;20.13;;;12.20;42.10;;;;;;4965128;28;20185;-55
2023/02/23 04:31:23;;;;;;;19.60;18.20;;;12.20;42.20;;;;;;4965480;28;20711;-56
2023/02/23 04:33:49;;;;;;;19.27;17.57;;;12.20;42.40;;;;;;4953677;28;20209;-56
2023/02/23 04:36:14;;;;;;;17.23;15.70;;;12.20;42.30;;;;;;4965639;28;20410;-56
2023/02/23 04:38:40;;;;;;;19.90;18.37;;;12.30;42.30;;;;;;4971060;28;20433;-54
2023/02/23 04:41:06;;;;;;;18.33;16.80;;;12.30;41.90;;;;;;4956955;28;20190;-56
2023/02/23 04:43:31;;;;;;;19.80;18.30;;;12.30;42.00;;;;;;4969200;28;20186;-56
2023/02/23 04:45:57;;;;;;;17.73;16.47;;;12.50;41.90;;;;;;4962921;28;20187;-56
2023/02/23 04:48:24;;;;;;;18.40;16.90;;;12.50;41.90;;;;;;4967336;28;20186;-55
2023/02/23 04:50:52;;;;;;;17.80;16.50;;;12.50;41.60;;;;;;4964938;28;20188;-54
2023/02/23 04:53:17;;;;;;;24.47;19.20;;;12.60;41.20;;;;;;4966260;28;20431;-51
2023/02/23 04:55:43;;;;;;;20.27;18.43;;;12.70;40.90;;;;;;4964008;28;20430;-54
2023/02/23 04:58:12;;;;;;;20.67;18.50;;;12.70;40.60;;;;;;4966651;28;20182;-51
2023/02/23 05:00:38;;;;;;;19.43;17.73;;;12.70;40.30;;;;;;4965251;28;20274;-52
2023/02/23 05:03:04;;;;;;;19.27;17.60;;;12.80;40.10;;;;;;4966726;28;20730;-49
2023/02/23 05:05:30;;;;;;;20.20;18.47;;;12.80;40.00;;;;;;4966552;28;20422;-53
2023/02/23 05:07:56;;;;;;;23.93;21.67;;;12.80;40.20;;;;;;4968971;28;20186;-52
2023/02/23 05:10:21;;;;;;;21.30;19.67;;;12.80;40.50;;;;;;4965073;28;20417;-53
2023/02/23 05:12:47;;;;;;;21.10;19.50;;;12.80;40.30;;;;;;4971289;28;20646;-52
2023/02/23 05:15:13;;;;;;;20.30;18.43;;;12.80;40.00;;;;;;4963790;28;20950;-50
2023/02/23 05:17:42;;;;;;;20.77;19.10;;;12.60;41.10;;;;;;4970181;28;20185;-49
2023/02/23 05:20:11;;;;;;;19.90;18.30;;;12.70;41.00;;;;;;4964417;28;20175;-51
2023/02/23 05:22:37;;;;;;;21.80;19.70;;;12.70;40.80;;;;;;4978316;28;20520;-49
2023/02/23 05:25:03;;;;;;;19.00;17.67;;;12.70;40.50;;;;;;4961604;28;20885;-49
2023/02/23 05:27:29;;;;;;;21.37;19.37;;;12.70;40.10;;;;;;4967482;28;20182;-50
2023/02/23 05:29:55;;;;;;;18.83;17.53;;;12.70;39.90;;;;;;4964814;28;20422;-51
2023/02/23 05:32:21;;;;;;;20.50;18.40;;;12.70;39.80;;;;;;4964187;28;20952;-51
2023/02/23 05:34:46;;;;;;;21.10;19.33;;;12.80;39.60;;;;;;4971119;28;20622;-55
2023/02/23 05:37:12;;;;;;;22.43;20.30;;;12.80;39.80;;;;;;4964229;28;20185;-50
2023/02/23 05:39:38;;;;;;;21.67;19.70;;;12.80;39.70;;;;;;4969713;28;20240;-54
2023/02/23 05:42:04;;;;;;;21.80;19.93;;;12.70;39.30;;;;;;4968382;28;20420;-53
2023/02/23 05:44:29;;;;;;;21.70;19.90;;;12.60;39.80;;;;;;4967379;28;20194;-51
2023/02/23 05:46:55;;;;;;;19.37;17.87;;;12.60;40.00;;;;;;4966736;28;20224;-55
2023/02/23 05:49:21;;;;;;;21.30;19.60;;;12.60;40.20;;;;;;4968625;28;20189;-52
2023/02/23 05:51:47;;;;;;;20.73;18.57;;;12.60;40.20;;;;;;4967439;28;20189;-50
2023/02/23 05:54:12;;;;;;;20.50;18.80;;;12.60;40.50;;;;;;4968525;28;20544;-52
2023/02/23 05:56:39;;;;;;;20.80;19.20;;;12.60;40.60;;;;;;4966153;28;20182;-51
2023/02/23 05:59:04;;;;;;;22.07;20.13;;;12.60;40.80;;;;;;4968198;28;20192;-54
2023/02/23 06:01:30;;;;;;;19.47;17.97;;;12.60;40.80;;;;;;4964636;28;20422;-54
2023/02/23 06:03:56;;;;;;;19.90;18.30;;;12.60;40.70;;;;;;4971043;28;20187;-50
2023/02/23 06:06:22;;;;;;;18.60;17.10;;;12.60;40.60;;;;;;4964394;28;21038;-52
2023/02/23 06:08:48;;;;;;;20.13;18.43;;;12.60;40.40;;;;;;4970700;28;20623;-53
2023/02/23 06:11:14;;;;;;;19.83;18.20;;;12.60;40.20;;;;;;4970718;28;20421;-52
2023/02/23 06:13:40;;;;;;;19.23;17.33;;;12.60;40.40;;;;;;4983244;28;20209;-53
2023/02/23 06:16:07;;;;;;;20.53;18.87;;;12.60;40.60;;;;;;4979130;28;20413;-53
2023/02/23 06:18:33;;;;;;;21.20;19.50;;;12.60;40.40;;;;;;4958894;28;20174;-53
2023/02/23 06:21:00;;;;;;;22.17;20.37;;;12.60;40.10;;;;;;4962345;28;20410;-54
2023/02/23 06:23:27;;;;;;;21.77;19.67;;;12.40;40.80;;;;;;4966526;28;20507;-52
2023/02/23 06:25:53;;;;;;;21.77;19.40;;;12.30;41.60;;;;;;4957094;28;20414;-57
2023/02/23 06:28:18;;;;;;;21.13;19.27;;;12.30;42.00;;;;;;4967261;28;20435;-54
2023/02/23 06:30:45;;;;;;;19.87;18.27;;;12.30;41.70;;;;;;4966716;28;20206;-53
2023/02/23 06:33:11;;;;;;;24.87;23.07;;;12.40;41.50;;;;;;4967496;28;20265;-53
2023/02/23 06:35:37;;;;;;;21.00;19.17;;;12.50;41.00;;;;;;4966060;28;20517;-54
2023/02/23 06:38:05;;;;;;;20.57;18.83;;;12.40;41.00;;;;;;4967685;28;20179;-54
2023/02/23 06:40:31;;;;;;;23.53;21.30;;;12.50;41.20;;;;;;4964733;28;20426;-50
2023/02/23 06:42:57;;;;;;;21.83;20.10;;;12.50;41.10;;;;;;4970417;28;20450;-53
2023/02/23 06:45:22;;;;;;;21.77;19.77;;;12.50;40.90;;;;;;4963736;28;20500;-54
2023/02/23 06:47:48;;;;;;;21.20;19.13;;;12.50;40.70;;;;;;4969404;28;20183;-53
2023/02/23 06:50:14;;;;;;;26.77;24.37;;;12.40;40.80;;;;;;4964264;28;20262;-53
2023/02/23 06:52:40;;;;;;;24.77;22.90;;;12.40;40.70;;;;;;4963825;28;20249;-57
2023/02/23 06:55:06;;;;;;;25.00;23.30;;;12.40;40.60;;;;;;4971287;28;20830;-54
2023/02/23 06:57:33;;;;;;;23.30;21.50;;;12.40;40.80;;;;;;4972515;28;20533;-56
2023/02/23 07:00:00;;;;;;;20.50;19.00;;;12.40;40.80;;;;;;4963002;28;20427;-56
2023/02/23 07:02:26;;;;;;;20.83;18.93;;;12.40;40.90;;;;;;4963885;28;20480;-55
2023/02/23 07:04:51;;;;;;;21.23;19.57;;;12.40;40.80;;;;;;4956482;28;20995;-59
2023/02/23 07:07:17;;;;;;;22.80;21.03;;;12.40;41.00;;;;;;4961241;28;20182;-57
2023/02/23 07:09:43;;;;;;;22.40;20.03;;;12.40;41.20;;;;;;4962087;28;20286;-53
2023/02/23 07:12:09;;;;;;;19.97;18.47;;;12.40;40.90;;;;;;4958945;28;20259;-57
2023/02/23 07:14:36;;;;;;;19.43;17.87;;;12.40;41.10;;;;;;4963694;28;20215;-57
2023/02/23 07:17:03;;;;;;;20.33;18.63;;;12.40;41.20;;;;;;4967191;28;20433;-57
2023/02/23 07:19:29;;;;;;;20.63;18.73;;;12.30;41.20;;;;;;4965650;28;20418;-57
2023/02/23 07:21:55;;;;;;;21.97;20.33;;;12.30;41.70;;;;;;4964924;28;20414;-57
2023/02/23 07:24:21;;;;;;;21.60;19.80;;;12.30;41.80;;;;;;4960950;28;20899;-57
2023/02/23 07:26:48;;;;;;;18.53;16.90;;;12.30;41.60;;;;;;4956381;28;20497;-54
2023/02/23 07:29:14;;;;;;;18.73;17.53;;;12.20;42.00;;;;;;4969764;28;20189;-57
2023/02/23 07:31:40;;;;;;;17.50;16.27;;;12.20;42.30;;;;;;4964372;28;20417;-55
2023/02/23 07:34:07;;;;;;;16.80;15.60;;;12.30;42.90;;;;;;4966920;28;20467;-57
2023/02/23 07:36:34;;;;;;;16.20;15.10;;;12.30;42.30;;;;;;4965300;28;20225;-54
2023/02/23 07:38:59;;;;;;;14.87;13.77;;;12.30;42.90;;;;;;4963366;28;20891;-53
2023/02/23 07:41:25;;;;;;;17.67;16.23;;;12.10;42.30;;;;;;4968865;28;20452;-50
2023/02/23 07:43:51;;;;;;;17.47;16.27;;;12.20;42.50;;;;;;4966169;28;20276;-52
2023/02/23 07:46:16;;;;;;;18.60;17.23;;;12.30;42.40;;;;;;4959802;28;20230;-50
2023/02/23 07:48:45;;;;;;;18.50;17.30;;;12.10;42.30;;;;;;4966120;28;20246;-48
2023/02/23 07:51:12;;;;;;;17.37;16.23;;;12.00;43.40;;;;;;4966137;28;20185;-54
2023/02/23 07:53:41;;;;;;;15.97;14.77;;;11.90;43.40;;;;;;4979981;28;20493;-53
2023/02/23 07:56:09;;;;;;;17.63;16.53;;;11.80;44.30;;;;;;4961151;28;20426;-55
2023/02/23 07:58:36;;;;;;;17.43;16.43;;;11.80;44.20;;;;;;4964905;28;21010;-49
2023/02/23 08:01:02;;;;;;;17.00;15.60;;;11.80;43.90;;;;;;4953714;28;20517;-52
2023/02/23 08:03:27;;;;;;;15.87;14.83;;;11.80;43.20;;;;;;4957856;28;20827;-50
2023/02/23 08:05:53;;;;;;;16.93;15.93;;;11.80;43.80;;;;;;4956028;28;20241;-51
2023/02/23 08:08:19;;;;;;;16.70;15.37;;;12.00;43.80;;;;;;4956029;28;20267;-50
2023/02/23 08:10:46;;;;;;;13.40;12.60;;;12.10;43.50;;;;;;4963211;28;20652;-52
2023/02/23 08:13:12;;;;;;;16.13;15.03;;;12.20;42.90;;;;;;4956279;28;20484;-48
2023/02/23 08:15:38;;;;;;;15.70;14.80;;;12.30;42.60;;;;;;4956524;28;20918;-48
2023/02/23 08:18:04;;;;;;;15.83;14.83;;;12.40;41.90;;;;;;4964113;28;20273;-49
2023/02/23 08:20:29;;;;;;;14.27;13.10;;;12.50;42.20;;;;;;4955688;28;20182;-47
2023/02/23 08:22:56;;;;;;;13.83;12.83;;;12.50;41.00;;;;;;4962571;28;20469;-46
2023/02/23 08:25:22;;;;;;;12.90;11.90;;;12.50;41.30;;;;;;4958138;28;20179;-51
2023/02/23 08:27:50;;;;;;;13.10;11.97;;;12.60;41.10;;;;;;4955126;28;20428;-52
2023/02/23 08:30:18;;;;;;;12.53;11.73;;;12.60;41.00;;;;;;4955627;28;20418;-56
2023/02/23 08:32:44;;;;;;;14.40;13.30;;;12.70;41.10;;;;;;4944105;28;20515;-57
2023/02/23 08:35:10;;;;;;;13.80;12.87;;;12.70;41.20;;;;;;4956468;28;20544;-56
2023/02/23 08:37:36;;;;;;;14.50;13.27;;;12.50;41.00;;;;;;4957582;28;20430;-55
2023/02/23 08:40:02;;;;;;;13.10;12.00;;;12.50;42.10;;;;;;4956610;28;20261;-56
2023/02/23 08:42:27;;;;;;;13.43;12.63;;;12.50;41.10;;;;;;4956989;28;20252;-56
2023/02/23 08:44:53;;;;;;;14.00;12.90;;;12.50;41.10;;;;;;4957604;28;20449;-57
2023/02/23 08:47:22;;;;;;;17.40;15.90;;;12.40;42.30;;;;;;4957163;28;20183;-55
2023/02/23 08:49:48;;;;;;;15.30;14.30;;;12.40;42.60;;;;;;4958143;28;20186;-57
2023/02/23 08:52:13;;;;;;;15.53;14.63;;;12.50;42.30;;;;;;4973929;28;20461;-56
2023/02/23 08:54:39;;;;;;;14.87;13.90;;;12.60;42.20;;;;;;4957096;28;20512;-56
2023/02/23 08:57:05;;;;;;;13.80;12.80;;;12.60;41.20;;;;;;4956360;28;20653;-58
2023/02/23 08:59:30;;;;;;;13.63;12.93;;;12.60;40.60;;;;;;4956770;28;20233;-59
2023/02/23 09:01:56;;;;;;;17.87;16.77;;;12.60;40.90;;;;;;4958066;28;20197;-56
2023/02/23 09:04:22;;;;;;;15.23;13.67;;;12.60;40.70;;;;;;4957573;28;20217;-55
2023/02/23 09:06:48;;;;;;;14.70;13.80;;;12.70;40.50;;;;;;4959238;28;20198;-59
2023/02/23 09:09:15;;;;;;;13.97;13.17;;;12.70;41.20;;;;;;4954224;28;20202;-60
2023/02/23 09:11:41;;;;;;;14.63;13.50;;;12.80;41.00;;;;;;4955407;28;20778;-59
2023/02/23 09:14:07;;;;;;;16.60;15.60;;;12.90;41.00;;;;;;4959158;28;20473;-56
2023/02/23 09:16:34;;;;;;;13.23;12.40;;;12.90;40.50;;;;;;4961053;28;20493;-55
2023/02/23 09:19:03;;;;;;;14.17;13.17;;;13.00;40.00;;;;;;4960309;28;20433;-56
2023/02/23 09:21:29;;;;;;;14.77;13.60;;;13.00;39.40;;;;;;4959945;28;20417;-57
2023/02/23 09:23:55;;;;;;;12.53;11.73;;;13.10;39.30;;;;;;4961216;28;20950;-57
2023/02/23 09:26:23;;;;;;;13.73;12.53;;;12.90;38.80;;;;;;4960348;28;20430;-55
2023/02/23 09:28:49;;;;;;;17.30;16.17;;;12.80;39.10;;;;;;4960375;28;20430;-56
2023/02/23 09:31:21;;;;;;;13.07;12.27;;;12.90;40.10;;;;;;4960338;28;20430;-57
2023/02/23 09:33:46;;;;;;;12.47;11.67;;;12.90;40.00;;;;;;4962146;28;20472;-56
2023/02/23 09:36:15;;;;;;;13.70;12.60;;;13.00;39.60;;;;;;4960333;28;20422;-58
2023/02/23 09:38:42;;;;;;;12.07;11.20;;;12.90;39.60;;;;;;4961844;28;20570;-57
2023/02/23 09:41:37;;;;;;;12.93;12.13;;;12.80;39.90;;;;;;4960617;28;20421;-54
2023/02/23 09:44:20;;;;;;;14.40;13.57;;;12.80;40.20;;;;;;4959995;28;20438;-56
2023/02/23 09:47:13;;;;;;;14.23;13.33;;;12.80;39.20;;;;;;4961944;28;20428;-56
2023/02/23 09:49:41;;;;;;;23.83;21.90;;;12.80;39.80;;;;;;4961971;28;20430;-55
2023/02/23 09:52:18;;;;;;;22.13;20.43;;;12.90;40.50;;;;;;4957635;28;20434;-59
2023/02/23 09:54:45;;;;;;;22.57;20.80;;;12.80;41.30;;;;;;4961793;28;20465;-57
2023/02/23 09:57:17;;;;;;;21.00;19.37;;;12.80;41.80;;;;;;4960242;28;20528;-55
2023/02/23 09:59:44;;;;;;;22.00;20.10;;;13.00;42.00;;;;;;4961761;28;20426;-56
2023/02/23 10:02:18;;;;;;;18.57;16.70;;;13.00;41.20;;;;;;4960069;28;20509;-54
2023/02/23 10:04:44;;;;;;;22.33;20.53;;;13.00;41.10;;;;;;4958243;28;20798;-56
2023/02/23 10:07:28;;;;;;;20.03;18.70;;;12.90;42.10;;;;;;4957906;28;20434;-55
2023/02/23 10:10:18;;;;;;;24.03;22.00;;;12.90;41.60;;;;;;4955946;28;20182;-55
2023/02/23 10:13:08;;;;;;;23.37;21.17;;;12.80;42.30;;;;;;4957354;28;20829;-53
2023/02/23 10:15:42;;;;;;;24.00;22.20;;;12.80;41.90;;;;;;4958444;28;20473;-56
2023/02/23 10:18:26;;;;;;;22.67;20.57;;;12.90;42.80;;;;;;4958021;28;20420;-56
2023/02/23 10:21:04;;;;;;;22.57;20.80;;;13.00;42.90;;;;;;4962366;28;20429;-55
2023/02/23 10:23:39;;;;;;;24.37;21.90;;;13.10;42.20;;;;;;4956453;28;20480;-54
2023/02/23 10:26:14;;;;;;;21.70;20.00;;;13.20;41.30;;;;;;4968237;28;20418;-55
2023/02/23 10:28:40;;;;;;;21.70;20.03;;;13.20;41.10;;;;;;4964088;28;20513;-54
2023/02/23 10:31:30;;;;;;;21.70;19.70;;;13.20;40.30;;;;;;4983721;28;20520;-55
2023/02/23 10:34:00;;;;;;;19.30;17.60;;;13.30;41.00;;;;;;4965742;28;21039;-55
2023/02/23 10:36:40;;;;;;;15.77;14.57;;;13.50;39.40;;;;;;4967475;28;20413;-56
2023/02/23 10:39:07;;;;;;;16.53;14.97;;;13.50;39.00;;;;;;4961236;28;20421;-55
2023/02/23 10:41:35;;;;;;;16.87;15.33;;;13.50;38.70;;;;;;4966163;28;20824;-57
2023/02/23 10:44:02;;;;;;;17.53;16.13;;;13.60;38.60;;;;;;4967194;28;20946;-54
2023/02/23 10:46:36;;;;;;;16.03;14.83;;;13.70;37.90;;;;;;4965125;28;20475;-58
2023/02/23 10:49:02;;;;;;;16.70;14.60;;;13.80;37.00;;;;;;4967729;28;20457;-57
2023/02/23 10:51:35;;;;;;;16.30;15.10;;;13.80;36.40;;;;;;4963770;28;20513;-54
2023/02/23 10:54:33;;;;;;;15.73;14.63;;;13.90;36.00;;;;;;4967447;28;20842;-56
2023/02/23 10:56:58;;;;;;;15.87;14.37;;;14.00;35.30;;;;;;4952881;28;20509;-57
2023/02/23 10:59:24;;;;;;;15.00;13.70;;;14.00;35.10;;;;;;4962883;28;21013;-56
2023/02/23 11:01:50;;;;;;;16.23;14.60;;;14.00;35.10;;;;;;4966789;28;20588;-57
2023/02/23 11:04:21;;;;;;;14.10;13.20;;;14.00;35.30;;;;;;4968104;28;20561;-57
2023/02/23 11:06:47;;;;;;;14.63;13.70;;;14.00;35.10;;;;;;4963731;28;20182;-52
2023/02/23 11:09:30;;;;;;;15.13;13.73;;;14.00;35.00;;;;;;4959490;28;20450;-57
2023/02/23 11:11:58;;;;;;;15.47;14.00;;;13.90;34.90;;;;;;4956837;28;20424;-55
2023/02/23 11:14:26;;;;;;;13.97;12.93;;;13.80;34.80;;;;;;4963720;28;20536;-56
2023/02/23 11:16:57;;;;;;;15.53;14.23;;;13.80;34.80;;;;;;4957267;28;20444;-55
2023/02/23 11:19:33;;;;;;;15.60;14.50;;;13.90;35.00;;;;;;4963745;28;20422;-53
2023/02/23 11:21:59;;;;;;;16.63;15.47;;;14.00;35.00;;;;;;4959162;28;20414;-57
2023/02/23 11:24:31;;;;;;;15.90;13.80;;;13.90;35.00;;;;;;4962968;28;20427;-57
2023/02/23 11:27:02;;;;;;;15.43;14.00;;;13.80;34.80;;;;;;4960040;28;20521;-57
2023/02/23 11:29:41;;;;;;;16.70;15.60;;;13.90;35.00;;;;;;4969189;28;20760;-56
2023/02/23 11:32:08;;;;;;;16.70;15.27;;;13.90;34.90;;;;;;4963090;28;20432;-54
2023/02/23 11:34:47;;;;;;;18.03;16.37;;;13.80;36.20;;;;;;4969235;28;20492;-57
2023/02/23 11:37:13;;;;;;;17.63;16.33;;;13.70;36.80;;;;;;4963372;28;20509;-57
2023/02/23 11:39:51;;;;;;;19.07;17.50;;;13.70;37.20;;;;;;4968314;28;20433;-52
2023/02/23 11:42:19;;;;;;;19.93;17.27;;;13.70;37.90;;;;;;4964434;28;20745;-55
2023/02/23 11:45:15;;;;;;;17.73;16.03;;;13.80;37.80;;;;;;4963714;28;21255;-53
2023/02/23 11:47:45;;;;;;;22.23;17.03;;;13.80;37.10;;;;;;4960998;28;20444;-54
2023/02/23 11:50:29;;;;;;;15.97;14.67;;;13.70;37.20;;;;;;4957227;28;20509;-54
2023/02/23 11:53:05;;;;;;;17.17;15.70;;;13.80;37.00;;;;;;4958449;28;20945;-58
2023/02/23 11:55:32;;;;;;;17.00;14.90;;;13.80;36.40;;;;;;4950757;28;20535;-57
2023/02/23 11:58:38;;;;;;;17.07;15.20;;;13.90;36.10;;;;;;4960688;28;20426;-57
2023/02/23 12:01:15;;;;;;;15.00;13.83;;;14.00;35.10;;;;;;4924346;28;20441;-56
2023/02/23 12:03:51;;;;;;;14.67;13.50;;;14.10;35.10;;;;;;4966116;28;20434;-56
2023/02/23 12:06:36;;;;;;;15.43;14.43;;;14.20;34.20;;;;;;4959417;28;21288;-56
2023/02/23 12:09:12;;;;;;;26.40;13.30;;;14.20;33.70;;;;;;4965039;28;20504;-57
2023/02/23 12:11:43;;;;;;;15.07;13.80;;;14.20;33.40;;;;;;4956502;28;20496;-52
2023/02/23 12:14:18;;;;;;;15.83;12.00;;;14.10;32.90;;;;;;4967968;28;20971;-52
2023/02/23 12:16:51;;;;;;;13.10;12.10;;;14.00;33.30;;;;;;4958227;28;20430;-46
2023/02/23 12:19:38;;;;;;;12.93;11.90;;;13.90;32.90;;;;;;4965798;28;20577;-55
2023/02/23 12:22:11;;;;;;;13.27;12.17;;;13.90;33.20;;;;;;4952550;28;20464;-54
2023/02/23 12:24:36;;;;;;;13.87;12.53;;;13.80;33.00;;;;;;4956919;28;20422;-56
2023/02/23 12:27:21;;;;;;;12.57;11.33;;;13.90;34.50;;;;;;4967946;28;20473;-55
2023/02/23 12:29:47;;;;;;;13.40;12.30;;;14.00;33.00;;;;;;4968820;28;20191;-54
2023/02/23 12:32:44;;;;;;;13.33;12.43;;;14.00;33.30;;;;;;4961256;28;20430;-53
2023/02/23 12:35:26;;;;;;;12.00;11.20;;;14.00;33.60;;;;;;4957424;28;20549;-56
2023/02/23 12:38:05;;;;;;;11.73;10.80;;;14.10;32.70;;;;;;4950806;28;20918;-53
2023/02/23 12:40:34;;;;;;;12.87;11.90;;;14.10;31.70;;;;;;4962972;28;20930;-54
2023/02/23 12:43:23;;;;;;;14.10;12.87;;;14.10;31.20;;;;;;4968485;28;20914;-54
2023/02/23 12:46:26;;;;;;;12.13;10.97;;;14.00;30.80;;;;;;4966516;28;20839;-56
2023/02/23 12:49:34;;;;;;;11.50;10.67;;;14.00;31.10;;;;;;4947713;28;20703;-57
2023/02/23 12:52:20;;;;;;;10.47;9.73;;;14.00;31.10;;;;;;4961110;28;20459;-55
2023/02/23 12:54:46;;;;;;;10.20;9.60;;;13.90;31.70;;;;;;4986026;28;20469;-58
2023/02/23 12:57:24;;;;;;;11.43;10.73;;;13.90;31.00;;;;;;4969634;28;20887;-57
2023/02/23 12:59:50;;;;;;;11.63;10.93;;;13.90;30.70;;;;;;4967402;28;20220;-57
2023/02/23 13:02:39;;;;;;;11.20;10.60;;;14.00;32.20;;;;;;4969229;28;20817;-57
2023/02/23 13:05:30;;;;;;;11.43;10.50;;;14.10;32.30;;;;;;4962201;28;20217;-59
2023/02/23 13:07:59;;;;;;;12.50;11.63;;;14.10;31.00;;;;;;4967565;28;20955;-56
2023/02/23 13:11:06;;;;;;;12.53;11.83;;;14.20;30.40;;;;;;4969185;28;20796;-58
2023/02/23 13:14:09;;;;;;;11.20;10.60;;;14.20;30.00;;;;;;4932437;28;20431;-58
2023/02/23 13:17:03;;;;;;;11.83;11.10;;;14.30;30.00;;;;;;4971094;28;20516;-55
2023/02/23 13:19:32;;;;;;;12.43;11.53;;;14.30;29.80;;;;;;4926192;28;20418;-54
2023/02/23 13:22:32;;;;;;;13.20;12.10;;;14.30;30.00;;;;;;4971944;28;20415;-55
2023/02/23 13:25:01;;;;;;;12.33;11.63;;;14.30;29.90;;;;;;4955104;28;20424;-57
2023/02/23 13:27:57;;;;;;;13.07;12.17;;;14.30;30.10;;;;;;4964931;28;20992;-57
2023/02/23 13:30:23;;;;;;;13.10;12.10;;;14.30;30.10;;;;;;4967191;28;20457;-53
2023/02/23 13:32:49;;;;;;;13.63;12.83;;;14.30;29.90;;;;;;4960911;28;20726;-55
2023/02/23 13:35:17;;;;;;;11.27;10.67;;;14.30;30.10;;;;;;4963295;28;20710;-58
2023/02/23 13:37:59;;;;;;;14.13;12.80;;;14.30;30.60;;;;;;4966426;28;20681;-59
2023/02/23 13:40:39;;;;;;;13.40;12.50;;;14.30;30.80;;;;;;4966411;28;20422;-57
2023/02/23 13:43:16;;;;;;;13.00;12.10;;;14.30;31.00;;;;;;4959716;28;20457;-58
2023/02/23 13:45:52;;;;;;;13.30;12.50;;;14.30;31.20;;;;;;4965370;28;20815;-57
2023/02/23 13:48:31;;;;;;;13.20;12.33;;;14.30;31.40;;;;;;4965013;28;20410;-58
2023/02/23 13:51:25;;;;;;;13.00;12.23;;;14.20;31.60;;;;;;4954393;28;20413;-58
2023/02/23 13:54:05;;;;;;;12.47;11.57;;;14.20;31.70;;;;;;4968355;28;20472;-59
2023/02/23 13:56:36;;;;;;;14.03;12.80;;;14.20;31.90;;;;;;4966775;28;20410;-59
2023/02/23 13:59:09;;;;;;;12.73;11.93;;;14.20;32.90;;;;;;4968681;28;20426;-59
2023/02/23 14:01:42;;;;;;;13.50;12.60;;;14.20;32.10;;;;;;4965253;28;20431;-61
2023/02/23 14:04:35;;;;;;;12.83;11.73;;;14.20;32.40;;;;;;4967224;28;20471;-59
2023/02/23 14:07:31;;;;;;;11.47;10.70;;;14.20;32.60;;;;;;4968719;28;20444;-58